createdAt,value
2023-04-17T00:01:00.684Z,20.90
2023-04-17T00:03:27.189Z,18.67
2023-04-17T00:05:54.030Z,19.20
2023-04-17T00:08:20.522Z,23.83
2023-04-17T00:10:51.207Z,20.05
2023-04-17T00:13:26.838Z,24.33
2023-04-17T00:15:53.239Z,24.58
2023-04-17T00:18:19.727Z,25.17
2023-04-17T00:20:46.159Z,24.98
2023-04-17T00:23:12.567Z,25.98
2023-04-17T00:25:38.983Z,22.80
2023-04-17T00:28:05.628Z,22.40
2023-04-17T00:30:32.027Z,25.65
2023-04-17T00:32:58.486Z,25.77
2023-04-17T00:35:24.965Z,30.40
2023-04-17T00:37:51.495Z,25.40
2023-04-17T00:40:18.107Z,26.80
2023-04-17T00:42:52.916Z,24.88
2023-04-17T00:45:20.598Z,24.45
2023-04-17T00:47:48.778Z,23.23
2023-04-17T00:50:15.398Z,24.83
2023-04-17T00:52:41.803Z,28.55
2023-04-17T00:55:08.503Z,25.05
2023-04-17T00:57:34.909Z,27.88
2023-04-17T01:00:01.488Z,29.08
2023-04-17T01:02:28.267Z,26.55
2023-04-17T01:04:54.940Z,27.10
2023-04-17T01:07:21.797Z,26.85
2023-04-17T01:09:48.452Z,31.83
2023-04-17T01:12:22.576Z,26.35
2023-04-17T01:14:55.992Z,26.05
2023-04-17T01:17:23.523Z,31.65
2023-04-17T01:19:49.974Z,31.15
2023-04-17T01:22:16.617Z,26.80
2023-04-17T01:24:43.563Z,24.63
2023-04-17T01:27:10.028Z,30.65
2023-04-17T01:29:36.714Z,30.13
2023-04-17T01:32:03.194Z,30.58
2023-04-17T01:34:29.624Z,29.60
2023-04-17T01:36:56.032Z,27.70
2023-04-17T01:39:22.482Z,28.23
2023-04-17T01:41:48.955Z,26.35
2023-04-17T01:44:15.391Z,30.55
2023-04-17T01:46:41.866Z,29.38
2023-04-17T01:49:08.353Z,29.00
2023-04-17T01:51:34.772Z,29.25
2023-04-17T01:54:01.196Z,29.77
2023-04-17T01:56:27.881Z,27.83
2023-04-17T01:58:54.327Z,27.63
2023-04-17T02:01:20.932Z,26.35
2023-04-17T02:03:47.657Z,31.75
2023-04-17T02:06:15.100Z,30.08
2023-04-17T02:08:43.957Z,30.83
2023-04-17T02:11:10.490Z,28.33
2023-04-17T02:13:36.905Z,29.63
2023-04-17T02:16:03.357Z,27.10
2023-04-17T02:18:29.796Z,32.58
2023-04-17T02:20:56.197Z,27.73
2023-04-17T02:23:22.596Z,30.67
2023-04-17T02:25:48.988Z,25.85
2023-04-17T02:28:15.694Z,27.23
2023-04-17T02:30:42.154Z,31.67
2023-04-17T02:33:08.864Z,26.80
2023-04-17T02:35:35.369Z,28.92
2023-04-17T02:38:01.990Z,29.80
2023-04-17T02:40:28.406Z,26.65
2023-04-17T02:47:19.246Z,29.23
2023-04-17T02:49:45.873Z,29.88
2023-04-17T02:52:12.287Z,29.77
2023-04-17T02:54:38.704Z,28.70
2023-04-17T02:57:06.491Z,29.73
2023-04-17T02:59:32.915Z,24.20
2023-04-17T03:01:59.790Z,32.30
2023-04-17T03:04:28.024Z,29.35
2023-04-17T03:06:54.441Z,26.88
2023-04-17T03:09:22.374Z,33.80
2023-04-17T03:11:49.013Z,29.70
2023-04-17T03:14:15.667Z,34.88
2023-04-17T03:16:42.629Z,28.20
2023-04-17T03:19:09.414Z,27.10
2023-04-17T03:21:36.457Z,27.88
2023-04-17T03:24:03.710Z,29.00
2023-04-17T03:26:30.804Z,24.80
2023-04-17T03:29:00.528Z,30.40
2023-04-17T03:31:27.899Z,27.58
2023-04-17T03:33:54.403Z,29.77
2023-04-17T03:36:25.081Z,40.72
2023-04-17T03:41:32.424Z,37.80
2023-04-17T03:43:58.888Z,36.58
2023-04-17T03:46:25.518Z,32.50
2023-04-17T03:48:52.886Z,29.98
2023-04-17T03:51:19.345Z,36.55
2023-04-17T03:53:47.559Z,27.63
2023-04-17T03:56:14.368Z,32.92
2023-04-17T03:58:43.673Z,31.65
2023-04-17T04:01:12.593Z,34.35
2023-04-17T04:03:49.040Z,30.27
2023-04-17T04:06:20.202Z,32.85
2023-04-17T04:08:47.392Z,31.65
2023-04-17T04:11:13.950Z,31.15
2023-04-17T04:13:40.703Z,33.33
2023-04-17T04:16:08.072Z,33.53
2023-04-17T04:18:37.670Z,33.13
2023-04-17T04:21:05.752Z,38.72
2023-04-17T04:23:37.774Z,25.90
2023-04-17T04:26:04.239Z,27.88
2023-04-17T04:28:39.778Z,40.58
2023-04-17T04:31:14.834Z,34.75
2023-04-17T04:33:41.404Z,36.55
2023-04-17T04:36:07.885Z,36.72
2023-04-17T04:38:35.367Z,36.30
2023-04-17T04:41:14.824Z,31.73
2023-04-17T04:43:41.824Z,35.78
2023-04-17T04:46:10.537Z,31.92
2023-04-17T04:48:42.837Z,34.53
2023-04-17T04:51:09.544Z,38.88
2023-04-17T04:53:37.114Z,37.60
2023-04-17T04:56:04.144Z,38.78
2023-04-17T04:58:31.722Z,30.83
2023-04-17T05:01:00.829Z,35.20
2023-04-17T05:03:37.308Z,36.58
2023-04-17T05:06:05.863Z,38.55
2023-04-17T05:08:40.701Z,34.33
2023-04-17T05:11:10.599Z,31.20
2023-04-17T05:13:37.422Z,37.50
2023-04-17T05:16:03.882Z,40.58
2023-04-17T05:18:30.980Z,37.13
2023-04-17T05:20:57.903Z,40.45
2023-04-17T05:23:26.353Z,39.63
2023-04-17T05:25:52.788Z,39.97
2023-04-17T05:28:19.222Z,35.53
2023-04-17T05:30:45.985Z,34.03
2023-04-17T05:33:18.500Z,37.03
2023-04-17T05:35:56.011Z,35.45
2023-04-17T05:38:23.171Z,36.50
2023-04-17T05:40:49.632Z,41.40
2023-04-17T05:43:16.537Z,39.30
2023-04-17T05:45:43.002Z,39.75
2023-04-17T05:48:09.412Z,41.10
2023-04-17T05:50:37.373Z,44.78
2023-04-17T05:53:04.930Z,38.47
2023-04-17T05:55:35.820Z,44.53
2023-04-17T05:58:20.424Z,37.85
2023-04-17T06:00:50.792Z,45.92
2023-04-17T06:03:19.372Z,38.75
2023-04-17T06:05:49.320Z,47.30
2023-04-17T06:08:16.269Z,47.38
2023-04-17T06:10:45.549Z,45.05
2023-04-17T06:13:11.990Z,47.72
2023-04-17T06:15:42.897Z,56.80
2023-04-17T06:18:09.833Z,43.92
2023-04-17T06:20:38.672Z,43.40
2023-04-17T06:23:06.378Z,49.00
2023-04-17T06:25:32.797Z,51.90
2023-04-17T06:27:59.238Z,46.35
2023-04-17T06:30:25.712Z,50.65
2023-04-17T06:32:54.169Z,47.55
2023-04-17T06:35:20.867Z,46.83
2023-04-17T06:37:52.284Z,44.63
2023-04-17T06:40:18.902Z,47.90
2023-04-17T06:42:45.323Z,50.40
2023-04-17T06:45:17.580Z,45.40
2023-04-17T06:47:46.440Z,45.17
2023-04-17T06:50:16.907Z,47.03
2023-04-17T06:52:43.326Z,47.63
2023-04-17T06:55:10.243Z,47.40
2023-04-17T06:57:36.784Z,46.15
2023-04-17T07:00:03.998Z,42.58
2023-04-17T07:02:30.706Z,50.00
2023-04-17T07:04:57.444Z,44.60
2023-04-17T07:07:24.136Z,48.30
2023-04-17T07:09:50.558Z,46.35
2023-04-17T07:12:16.969Z,47.75
2023-04-17T07:14:43.382Z,42.10
2023-04-17T07:17:10.012Z,54.85
2023-04-17T07:19:37.564Z,47.17
2023-04-17T07:22:05.711Z,44.90
2023-04-17T07:24:34.942Z,49.60
2023-04-17T07:27:02.876Z,43.20
2023-04-17T07:29:29.410Z,46.83
2023-04-17T07:31:55.971Z,43.60
2023-04-17T07:34:25.081Z,48.17
2023-04-17T07:36:54.537Z,43.78
2023-04-17T07:39:21.011Z,39.60
2023-04-17T07:41:47.443Z,45.13
2023-04-17T07:44:13.828Z,43.90
2023-04-17T07:46:41.294Z,43.00
2023-04-17T07:49:11.437Z,42.40
2023-04-17T07:51:41.044Z,43.38
2023-04-17T07:54:07.596Z,40.75
2023-04-17T07:56:34.522Z,39.75
2023-04-17T07:59:01.029Z,41.15
2023-04-17T08:01:27.714Z,39.65
2023-04-17T08:03:55.534Z,43.78
2023-04-17T08:06:22.162Z,44.35
2023-04-17T08:08:48.565Z,38.40
2023-04-17T08:11:15.093Z,39.55
2023-04-17T08:13:41.879Z,39.78
2023-04-17T08:16:09.872Z,40.53
2023-04-17T08:18:37.701Z,42.88
2023-04-17T08:21:04.445Z,47.85
2023-04-17T08:23:31.339Z,47.25
2023-04-17T08:25:58.282Z,46.30
2023-04-17T08:28:25.105Z,42.60
2023-04-17T08:30:52.014Z,38.33
2023-04-17T08:33:18.677Z,36.63
2023-04-17T08:35:45.329Z,36.88
2023-04-17T08:38:14.719Z,40.72
2023-04-17T08:40:48.910Z,41.00
2023-04-17T08:43:16.512Z,38.55
2023-04-17T08:45:56.538Z,39.75
2023-04-17T08:48:23.904Z,35.75
2023-04-17T08:50:52.127Z,29.95
2023-04-17T08:53:19.714Z,40.45
2023-04-17T08:55:47.209Z,33.97
2023-04-17T08:58:14.625Z,34.17
2023-04-17T09:00:43.312Z,31.48
2023-04-17T09:03:12.240Z,41.08
2023-04-17T09:05:42.644Z,33.97
2023-04-17T09:08:15.760Z,33.23
2023-04-17T09:10:44.702Z,31.02
2023-04-17T09:13:14.568Z,30.67
2023-04-17T09:15:42.123Z,40.28
2023-04-17T09:18:32.895Z,26.88
2023-04-17T09:21:04.002Z,26.75
2023-04-17T09:23:45.400Z,27.38
2023-04-17T09:26:13.933Z,25.23
2023-04-17T09:28:40.901Z,24.23
2023-04-17T09:31:26.201Z,28.25
2023-04-17T09:33:59.838Z,29.58
2023-04-17T09:36:31.255Z,22.98
2023-04-17T09:39:00.813Z,27.63
2023-04-17T09:41:29.148Z,29.30
2023-04-17T09:44:00.972Z,28.55
2023-04-17T09:46:31.006Z,23.55
2023-04-17T09:49:01.843Z,28.17
2023-04-17T09:51:29.350Z,22.52
2023-04-17T09:53:58.820Z,21.73
2023-04-17T09:56:27.997Z,25.08
2023-04-17T09:58:54.472Z,26.88
2023-04-17T10:01:21.325Z,29.48
2023-04-17T10:03:48.702Z,20.83
2023-04-17T10:06:15.706Z,24.55
2023-04-17T10:08:42.683Z,22.17
2023-04-17T10:11:09.351Z,21.27
2023-04-17T10:13:38.695Z,19.33
2023-04-17T10:16:05.918Z,26.15
2023-04-17T10:18:32.884Z,22.48
2023-04-17T10:21:19.882Z,20.02
2023-04-17T10:23:46.332Z,25.60
2023-04-17T10:26:24.826Z,26.52
2023-04-17T10:28:57.625Z,24.25
2023-04-17T10:32:02.571Z,22.75
2023-04-17T10:34:36.146Z,19.17
2023-04-17T10:37:03.145Z,24.65
2023-04-17T10:39:49.999Z,19.05
2023-04-17T10:42:21.153Z,19.10
2023-04-17T10:44:48.745Z,22.90
2023-04-17T10:47:15.777Z,24.02
2023-04-17T10:49:52.197Z,20.20
2023-04-17T10:52:40.562Z,25.85
2023-04-17T10:55:17.659Z,18.70
2023-04-17T10:58:11.870Z,19.40
2023-04-17T11:00:49.779Z,19.83
2023-04-17T11:03:16.904Z,19.65
2023-04-17T11:05:47.300Z,21.63
2023-04-17T11:08:14.298Z,15.63
2023-04-17T11:10:41.208Z,23.75
2023-04-17T11:13:07.633Z,21.88
2023-04-17T11:15:35.213Z,22.15
2023-04-17T11:18:03.308Z,22.08
2023-04-17T11:20:32.301Z,22.20
2023-04-17T11:23:03.137Z,21.85
2023-04-17T11:25:31.634Z,21.45
2023-04-17T11:27:59.441Z,18.33
2023-04-17T11:30:30.848Z,23.88
2023-04-17T11:32:58.816Z,22.48
2023-04-17T11:35:33.923Z,24.60
2023-04-17T11:38:11.482Z,23.27
2023-04-17T11:40:52.248Z,19.75
2023-04-17T11:43:23.619Z,19.02
2023-04-17T11:45:52.088Z,19.00
2023-04-17T11:48:23.392Z,18.83
2023-04-17T11:50:50.039Z,15.13
2023-04-17T11:53:17.258Z,20.17
2023-04-17T11:55:44.985Z,23.50
2023-04-17T11:58:13.132Z,22.58
2023-04-17T12:00:40.752Z,16.52
2023-04-17T12:03:34.488Z,18.60
2023-04-17T12:06:03.011Z,18.38
2023-04-17T12:08:30.351Z,20.25
2023-04-17T12:10:57.856Z,23.80
2023-04-17T12:13:24.399Z,18.73
2023-04-17T12:15:51.069Z,21.20
2023-04-17T12:18:17.517Z,15.98
2023-04-17T12:20:43.944Z,21.08
2023-04-17T12:23:10.469Z,23.85
2023-04-17T12:25:36.864Z,22.30
2023-04-17T12:28:04.934Z,19.35
2023-04-17T12:30:31.988Z,29.65
2023-04-17T12:32:58.455Z,21.92
2023-04-17T12:35:24.901Z,27.75
2023-04-17T12:37:51.349Z,16.95
2023-04-17T12:40:20.446Z,21.52
2023-04-17T12:42:49.538Z,17.70
2023-04-17T12:45:16.975Z,18.42
2023-04-17T12:47:43.611Z,20.23
2023-04-17T12:50:11.835Z,23.77
2023-04-17T12:52:39.404Z,18.98
2023-04-17T12:55:07.586Z,21.98
2023-04-17T12:57:35.677Z,21.60
2023-04-17T13:00:02.622Z,21.50
2023-04-17T13:02:29.257Z,23.48
2023-04-17T13:04:56.315Z,17.73
2023-04-17T13:07:22.941Z,22.63
2023-04-17T13:09:49.355Z,20.55
2023-04-17T13:12:16.435Z,22.50
2023-04-17T13:14:42.881Z,24.52
2023-04-17T13:17:09.333Z,26.90
2023-04-17T13:19:36.006Z,29.58
2023-04-17T13:22:02.481Z,24.70
2023-04-17T13:24:28.946Z,26.95
2023-04-17T13:26:58.106Z,28.45
2023-04-17T13:29:24.880Z,28.13
2023-04-17T13:31:51.627Z,27.50
2023-04-17T13:34:18.060Z,26.88
2023-04-17T13:36:45.043Z,27.02
2023-04-17T13:39:12.196Z,26.58
2023-04-17T13:41:39.393Z,26.60
2023-04-17T13:44:05.937Z,24.45
2023-04-17T13:46:33.184Z,22.75
2023-04-17T13:49:00.445Z,23.98
2023-04-17T13:51:27.421Z,24.73
2023-04-17T13:53:53.936Z,22.42
2023-04-17T13:56:23.290Z,20.17
2023-04-17T13:58:50.388Z,22.67
2023-04-17T14:01:17.358Z,20.90
2023-04-17T14:03:45.859Z,22.25
2023-04-17T14:06:12.891Z,19.70
2023-04-17T14:08:41.776Z,18.98
2023-04-17T14:11:09.341Z,23.93
2023-04-17T14:13:35.760Z,22.33
2023-04-17T14:16:02.288Z,24.25
2023-04-17T14:18:28.722Z,23.55
2023-04-17T14:20:55.429Z,25.58
2023-04-17T14:23:30.435Z,26.90
2023-04-17T14:25:56.854Z,27.83
2023-04-17T14:28:23.817Z,33.40
2023-04-17T14:30:50.544Z,25.00
2023-04-17T14:33:16.987Z,26.38
2023-04-17T14:35:43.396Z,28.92
2023-04-17T14:38:09.807Z,26.90
2023-04-17T14:40:36.224Z,30.13
2023-04-17T14:43:02.638Z,29.30
2023-04-17T14:45:29.516Z,28.75
2023-04-17T14:47:56.005Z,26.95
2023-04-17T14:50:22.582Z,32.17
2023-04-17T14:52:48.973Z,33.72
2023-04-17T14:55:15.423Z,27.25
2023-04-17T14:57:41.816Z,32.92
2023-04-17T15:00:08.712Z,32.15
2023-04-17T15:02:38.430Z,30.77
2023-04-17T15:05:06.586Z,31.60
2023-04-17T15:07:33.144Z,33.67
2023-04-17T15:09:59.692Z,31.08
2023-04-17T15:12:26.392Z,26.30
2023-04-17T15:14:53.064Z,31.75
2023-04-17T15:17:19.809Z,30.60
2023-04-17T15:19:57.417Z,29.83
2023-04-17T15:22:27.300Z,23.13
2023-04-17T15:24:54.149Z,29.52
2023-04-17T15:27:20.646Z,25.70
2023-04-17T15:29:47.061Z,32.70
2023-04-17T15:32:13.551Z,28.35
2023-04-17T15:34:40.317Z,24.40
2023-04-17T15:37:07.334Z,23.33
2023-04-17T15:39:38.238Z,23.15
2023-04-17T15:42:08.544Z,23.90
2023-04-17T15:44:35.314Z,26.60
2023-04-17T15:47:02.045Z,22.88
2023-04-17T15:49:29.765Z,25.38
2023-04-17T15:51:56.347Z,20.27
2023-04-17T15:54:22.903Z,23.88
2023-04-17T15:56:49.339Z,21.08
2023-04-17T15:59:15.908Z,23.13
2023-04-17T16:01:42.359Z,21.00
2023-04-17T16:04:09.117Z,21.98
2023-04-17T16:06:35.734Z,23.75
2023-04-17T16:09:02.352Z,18.67
2023-04-17T16:11:28.827Z,18.55
2023-04-17T16:13:55.217Z,18.33
2023-04-17T16:16:21.634Z,18.48
2023-04-17T16:18:51.121Z,21.27
2023-04-17T16:21:17.550Z,16.83
2023-04-17T16:23:45.718Z,22.27
2023-04-17T16:26:14.037Z,20.58
2023-04-17T16:28:40.553Z,18.65
2023-04-17T16:31:07.053Z,20.35
2023-04-17T16:33:33.481Z,20.77
2023-04-17T16:35:59.888Z,21.35
2023-04-17T16:38:27.560Z,20.58
2023-04-17T16:40:56.935Z,21.88
2023-04-17T16:43:23.402Z,18.90
2023-04-17T16:45:50.033Z,16.75
2023-04-17T16:48:16.669Z,18.30
2023-04-17T16:50:43.154Z,19.70
2023-04-17T16:53:09.570Z,14.90
2023-04-17T16:55:36.528Z,12.57
2023-04-17T16:58:04.352Z,15.45
2023-04-17T17:00:31.344Z,16.00
2023-04-17T17:02:57.807Z,15.13
2023-04-17T17:05:24.554Z,21.20
2023-04-17T17:07:55.250Z,18.20
2023-04-17T17:10:21.656Z,20.65
2023-04-17T17:12:48.076Z,17.65
2023-04-17T17:15:14.467Z,19.45
2023-04-17T17:17:41.009Z,22.50
2023-04-17T17:20:08.126Z,19.35
2023-04-17T17:22:34.517Z,19.02
2023-04-17T17:25:00.930Z,21.83
2023-04-17T17:27:27.350Z,17.10
2023-04-17T17:29:59.021Z,17.42
2023-04-17T17:32:26.756Z,19.70
2023-04-17T17:34:53.191Z,19.63
2023-04-17T17:37:19.981Z,18.77
2023-04-17T17:39:46.397Z,19.48
2023-04-17T17:42:12.792Z,21.00
2023-04-17T17:44:40.231Z,19.50
2023-04-17T17:47:08.137Z,21.77
2023-04-17T17:49:34.674Z,21.33
2023-04-17T17:52:01.074Z,21.13
2023-04-17T17:54:27.482Z,22.42
2023-04-17T17:56:53.902Z,20.92
2023-04-17T17:59:21.410Z,20.50
2023-04-17T18:01:47.894Z,20.05
2023-04-17T18:04:14.612Z,20.85
2023-04-17T18:06:41.372Z,19.25
2023-04-17T18:09:07.782Z,22.45
2023-04-17T18:11:34.204Z,19.30
2023-04-17T18:14:00.801Z,21.45
2023-04-17T18:16:31.428Z,23.10
2023-04-17T18:18:59.759Z,24.10
2023-04-17T18:21:27.135Z,19.85
2023-04-17T18:23:53.530Z,23.48
2023-04-17T18:26:19.966Z,23.83
2023-04-17T18:28:46.372Z,24.70
2023-04-17T18:31:12.846Z,25.02
2023-04-17T18:33:39.286Z,24.85
2023-04-17T18:36:14.795Z,22.38
2023-04-17T18:38:44.151Z,24.48
2023-04-17T18:41:13.516Z,23.90
2023-04-17T18:43:39.905Z,24.65
2023-04-17T18:46:07.622Z,26.30
2023-04-17T18:48:34.584Z,26.33
2023-04-17T18:51:14.707Z,25.35
2023-04-17T18:53:41.257Z,25.75
2023-04-17T18:56:08.541Z,27.77
2023-04-17T18:58:34.964Z,29.38
2023-04-17T19:01:01.385Z,29.33
2023-04-17T19:03:27.875Z,28.40
2023-04-17T19:05:54.408Z,31.33
2023-04-17T19:08:20.808Z,29.83
2023-04-17T19:10:49.878Z,27.65
2023-04-17T19:13:16.304Z,33.05
2023-04-17T19:15:42.706Z,30.83
2023-04-17T19:18:09.616Z,33.00
2023-04-17T19:20:36.663Z,33.00
2023-04-17T19:23:03.641Z,32.00
2023-04-17T19:25:30.068Z,32.75
2023-04-17T19:27:56.486Z,33.08
2023-04-17T19:30:22.871Z,41.65
2023-04-17T19:32:49.324Z,36.70
2023-04-17T19:35:15.740Z,36.83
2023-04-17T19:37:43.360Z,38.58
2023-04-17T19:40:21.412Z,33.13
2023-04-17T19:42:50.444Z,37.78
2023-04-17T19:45:17.292Z,36.10
2023-04-17T19:47:46.609Z,34.95
2023-04-17T19:50:13.021Z,38.00
2023-04-17T19:52:39.935Z,37.20
2023-04-17T19:55:09.408Z,36.47
2023-04-17T19:57:36.321Z,35.63
2023-04-17T20:00:02.892Z,33.10
2023-04-17T20:02:39.088Z,35.83
2023-04-17T20:05:06.129Z,39.20
2023-04-17T20:07:32.595Z,39.38
2023-04-17T20:09:58.986Z,36.15
2023-04-17T20:12:25.457Z,39.42
2023-04-17T20:14:54.754Z,38.47
2023-04-17T20:17:21.205Z,39.92
2023-04-17T20:19:47.665Z,36.72
2023-04-17T20:22:14.067Z,36.75
2023-04-17T20:24:40.488Z,38.00
2023-04-17T20:27:06.896Z,35.80
2023-04-17T20:29:33.301Z,39.22
2023-04-17T20:32:01.317Z,39.38
2023-04-17T20:34:34.774Z,38.50
2023-04-17T20:37:01.926Z,40.40
2023-04-17T20:39:29.022Z,37.60
2023-04-17T20:41:55.522Z,39.22
2023-04-17T20:44:22.157Z,37.78
2023-04-17T20:46:48.649Z,41.53
2023-04-17T20:49:15.081Z,34.83
2023-04-17T20:51:41.500Z,42.17
2023-04-17T20:54:07.952Z,37.33
2023-04-17T20:56:34.568Z,38.78
2023-04-17T20:59:01.123Z,36.78
2023-04-17T21:01:27.600Z,34.83
2023-04-17T21:03:54.203Z,36.75
2023-04-17T21:06:22.834Z,39.20
2023-04-17T21:08:49.328Z,42.53
2023-04-17T21:11:15.886Z,39.55
2023-04-17T21:13:42.291Z,40.75
2023-04-17T21:16:11.861Z,41.30
2023-04-17T21:18:38.481Z,34.90
2023-04-17T21:21:05.010Z,32.92
2023-04-17T21:23:31.428Z,40.47
2023-04-17T21:25:57.834Z,39.03
2023-04-17T21:28:24.225Z,39.97
2023-04-17T21:30:50.636Z,38.95
2023-04-17T21:33:17.061Z,37.38
2023-04-17T21:35:43.453Z,41.72
2023-04-17T21:38:09.871Z,36.70
2023-04-17T21:40:37.180Z,40.05
2023-04-17T21:43:03.749Z,43.00
2023-04-17T21:45:31.612Z,41.53
2023-04-17T21:47:58.177Z,41.42
2023-04-17T21:50:24.622Z,35.15
2023-04-17T21:52:51.010Z,36.05
2023-04-17T21:55:17.409Z,37.63
2023-04-17T21:57:43.797Z,37.75
2023-04-17T22:00:12.634Z,35.35
2023-04-17T22:02:39.103Z,38.53
2023-04-17T22:05:05.755Z,35.90
2023-04-17T22:07:38.062Z,43.35
2023-04-17T22:10:10.691Z,31.23
2023-04-17T22:12:37.123Z,39.08
2023-04-17T22:15:03.800Z,35.75
2023-04-17T22:17:30.283Z,37.97
2023-04-17T22:19:56.760Z,41.35
2023-04-17T22:22:23.639Z,42.08
2023-04-17T22:24:50.090Z,39.28
2023-04-17T22:27:16.518Z,38.90
2023-04-17T22:29:42.896Z,36.67
2023-04-17T22:32:09.314Z,39.88
2023-04-17T22:34:35.779Z,38.17
2023-04-17T22:37:02.199Z,35.55
2023-04-17T22:39:28.603Z,38.10
2023-04-17T22:41:55.030Z,38.10
2023-04-17T22:44:21.420Z,36.88
2023-04-17T22:46:47.818Z,32.03
2023-04-17T22:49:14.520Z,36.08
2023-04-17T22:51:41.164Z,32.53
2023-04-17T22:54:15.458Z,34.28
2023-04-17T22:56:48.351Z,36.47
2023-04-17T22:59:14.735Z,35.70
2023-04-17T23:01:41.169Z,33.13
2023-04-17T23:04:08.081Z,33.30
2023-04-17T23:06:34.505Z,35.38
2023-04-17T23:09:01.365Z,34.40
2023-04-17T23:11:27.805Z,36.42
2023-04-17T23:13:54.198Z,39.85
2023-04-17T23:16:20.719Z,38.45
2023-04-17T23:18:47.185Z,39.78
2023-04-17T23:21:13.624Z,36.97
2023-04-17T23:23:40.130Z,37.60
2023-04-17T23:26:06.642Z,35.28
2023-04-17T23:28:33.090Z,37.45
2023-04-17T23:31:06.316Z,37.47
2023-04-17T23:33:33.358Z,36.25
2023-04-17T23:35:59.749Z,37.72
2023-04-17T23:38:26.145Z,36.20
2023-04-17T23:40:52.608Z,36.40
2023-04-17T23:43:19.031Z,34.25
2023-04-17T23:45:45.462Z,37.42
2023-04-17T23:48:11.865Z,34.75
2023-04-17T23:50:38.269Z,33.45
2023-04-17T23:53:04.780Z,38.13
2023-04-17T23:55:31.225Z,35.88
2023-04-17T23:57:57.642Z,34.28
